sensor_id;sensor_type;location;lat;lon;timestamp;pressure;altitude;pressure_sealevel;temperature;humidity
18755;BME280;35061;47.664;9.166;2023-03-23T00:00:01;101135.78;;;9.22;70.75
18755;BME280;35061;47.664;9.166;2023-03-23T00:02:31;101135.78;;;9.22;70.80
18755;BME280;35061;47.664;9.166;2023-03-23T00:05:06;101132.94;;;9.22;71.05
18755;BME280;35061;47.664;9.166;2023-03-23T00:07:35;101134.70;;;9.19;72.59
18755;BME280;35061;47.664;9.166;2023-03-23T00:10:03;101140.88;;;9.18;71.75
18755;BME280;35061;47.664;9.166;2023-03-23T00:12:31;101141.66;;;9.18;71.87
18755;BME280;35061;47.664;9.166;2023-03-23T00:15:04;101157.23;;;9.17;72.68
18755;BME280;35061;47.664;9.166;2023-03-23T00:17:33;101157.72;;;9.16;73.72
18755;BME280;35061;47.664;9.166;2023-03-23T00:20:02;101163.12;;;9.14;74.07
18755;BME280;35061;47.664;9.166;2023-03-23T00:22:33;101148.83;;;9.14;74.37
18755;BME280;35061;47.664;9.166;2023-03-23T00:25:06;101142.62;;;9.15;74.17
18755;BME280;35061;47.664;9.166;2023-03-23T00:27:35;101154.84;;;9.16;74.36
18755;BME280;35061;47.664;9.166;2023-03-23T00:30:04;101154.84;;;9.16;74.84
18755;BME280;35061;47.664;9.166;2023-03-23T00:32:33;101151.84;;;9.19;74.54
18755;BME280;35061;47.664;9.166;2023-03-23T00:35:01;101143.59;;;9.21;74.64
18755;BME280;35061;47.664;9.166;2023-03-23T00:37:29;101151.67;;;9.23;74.79
18755;BME280;35061;47.664;9.166;2023-03-23T00:39:57;101138.98;;;9.24;74.79
18755;BME280;35061;47.664;9.166;2023-03-23T00:42:25;101121.66;;;9.28;74.79
18755;BME280;35061;47.664;9.166;2023-03-23T00:44:53;101131.04;;;9.28;74.84
18755;BME280;35061;47.664;9.166;2023-03-23T00:47:27;101124.86;;;9.30;74.96
18755;BME280;35061;47.664;9.166;2023-03-23T00:49:56;101126.46;;;9.31;74.94
18755;BME280;35061;47.664;9.166;2023-03-23T00:52:24;101127.08;;;9.35;75.02
18755;BME280;35061;47.664;9.166;2023-03-23T00:54:53;101122.14;;;9.35;75.19
18755;BME280;35061;47.664;9.166;2023-03-23T00:57:21;101121.20;;;9.39;75.14
18755;BME280;35061;47.664;9.166;2023-03-23T00:59:51;101125.15;;;9.41;75.21
18755;BME280;35061;47.664;9.166;2023-03-23T01:02:30;101124.50;;;9.46;75.33
18755;BME280;35061;47.664;9.166;2023-03-23T01:04:58;101117.04;;;9.49;75.24
18755;BME280;35061;47.664;9.166;2023-03-23T01:07:26;101106.74;;;9.52;75.30
18755;BME280;35061;47.664;9.166;2023-03-23T01:09:55;101113.05;;;9.56;75.32
18755;BME280;35061;47.664;9.166;2023-03-23T01:12:25;101102.75;;;9.58;75.21
18755;BME280;35061;47.664;9.166;2023-03-23T01:14:54;101101.48;;;9.59;75.21
18755;BME280;35061;47.664;9.166;2023-03-23T01:17:22;101091.60;;;9.60;75.11
18755;BME280;35061;47.664;9.166;2023-03-23T01:19:50;101091.93;;;9.62;75.27
18755;BME280;35061;47.664;9.166;2023-03-23T01:22:18;101084.93;;;9.63;75.19
18755;BME280;35061;47.664;9.166;2023-03-23T01:24:46;101077.15;;;9.64;75.31
18755;BME280;35061;47.664;9.166;2023-03-23T01:27:14;101090.00;;;9.69;75.39
18755;BME280;35061;47.664;9.166;2023-03-23T01:29:42;101075.22;;;9.70;75.23
18755;BME280;35061;47.664;9.166;2023-03-23T01:32:10;101076.00;;;9.71;75.24
18755;BME280;35061;47.664;9.166;2023-03-23T01:34:38;101075.22;;;9.70;75.20
18755;BME280;35061;47.664;9.166;2023-03-23T01:37:08;101062.50;;;9.71;74.97
18755;BME280;35061;47.664;9.166;2023-03-23T01:39:36;101064.10;;;9.72;74.84
18755;BME280;35061;47.664;9.166;2023-03-23T01:42:05;101065.70;;;9.73;74.79
18755;BME280;35061;47.664;9.166;2023-03-23T01:47:01;101066.45;;;9.74;74.68
18755;BME280;35061;47.664;9.166;2023-03-23T01:49:42;101069.62;;;9.76;74.66
18755;BME280;35061;47.664;9.166;2023-03-23T01:52:20;101058.70;;;9.74;74.77
18755;BME280;35061;47.664;9.166;2023-03-23T01:54:53;101069.62;;;9.76;74.45
18755;BME280;35061;47.664;9.166;2023-03-23T01:57:24;101063.12;;;9.75;74.26
18755;BME280;35061;47.664;9.166;2023-03-23T01:59:55;101064.72;;;9.76;74.12
18755;BME280;35061;47.664;9.166;2023-03-23T02:02:26;101069.34;;;9.74;74.01
18755;BME280;35061;47.664;9.166;2023-03-23T02:04:57;101066.45;;;9.74;73.90
18755;BME280;35061;47.664;9.166;2023-03-23T02:07:29;101067.57;;;9.76;73.90
18755;BME280;35061;47.664;9.166;2023-03-23T02:09:59;101084.27;;;9.78;73.86
18755;BME280;35061;47.664;9.166;2023-03-23T02:12:28;101080.91;;;9.80;73.91
18755;BME280;35061;47.664;9.166;2023-03-23T02:14:56;101076.76;;;9.81;73.84
18755;BME280;35061;47.664;9.166;2023-03-23T02:17:39;101066.91;;;9.82;73.82
18755;BME280;35061;47.664;9.166;2023-03-23T02:23:12;101068.02;;;9.84;73.73
18755;BME280;35061;47.664;9.166;2023-03-23T02:31:21;101076.43;;;9.88;73.51
18755;BME280;35061;47.664;9.166;2023-03-23T02:36:38;101068.16;;;9.90;73.34
18755;BME280;35061;47.664;9.166;2023-03-23T02:39:14;101071.52;;;9.88;73.21
18755;BME280;35061;47.664;9.166;2023-03-23T02:41:51;101067.37;;;9.89;73.21
18755;BME280;35061;47.664;9.166;2023-03-23T02:44:23;101082.97;;;9.88;73.16
18755;BME280;35061;47.664;9.166;2023-03-23T02:46:53;101084.54;;;9.89;72.96
18755;BME280;35061;47.664;9.166;2023-03-23T02:49:24;101082.15;;;9.88;72.97
18755;BME280;35061;47.664;9.166;2023-03-23T02:51:53;101094.87;;;9.87;72.98
18755;BME280;35061;47.664;9.166;2023-03-23T02:54:24;101097.75;;;9.87;72.98
18755;BME280;35061;47.664;9.166;2023-03-23T02:56:54;101106.48;;;9.83;73.01
18755;BME280;35061;47.664;9.166;2023-03-23T02:59:23;101098.57;;;9.78;73.23
18755;BME280;35061;47.664;9.166;2023-03-23T03:01:57;101111.91;;;9.72;73.76
18755;BME280;35061;47.664;9.166;2023-03-23T03:04:26;101114.95;;;9.68;74.16
18755;BME280;35061;47.664;9.166;2023-03-23T03:07:27;101112.40;;;9.61;74.52
18755;BME280;35061;47.664;9.166;2023-03-23T03:10:19;101123.06;;;9.60;74.36
18755;BME280;35061;47.664;9.166;2023-03-23T03:12:53;101123.22;;;9.57;74.91
18755;BME280;35061;47.664;9.166;2023-03-23T03:15:37;101113.05;;;9.56;74.46
18755;BME280;35061;47.664;9.166;2023-03-23T03:18:10;101103.38;;;9.53;74.57
18755;BME280;35061;47.664;9.166;2023-03-23T03:20:47;101106.22;;;9.53;74.54
18755;BME280;35061;47.664;9.166;2023-03-23T03:23:17;101091.18;;;9.53;74.78
18755;BME280;35061;47.664;9.166;2023-03-23T03:25:48;101094.31;;;9.55;74.70
18755;BME280;35061;47.664;9.166;2023-03-23T03:28:19;101093.04;;;9.56;74.84
18755;BME280;35061;47.664;9.166;2023-03-23T03:30:55;101076.20;;;9.58;74.87
18755;BME280;35061;47.664;9.166;2023-03-23T03:33:24;101064.76;;;9.58;74.99
18755;BME280;35061;47.664;9.166;2023-03-23T03:35:57;101064.76;;;9.58;74.91
18755;BME280;35061;47.664;9.166;2023-03-23T03:38:26;101055.08;;;9.55;75.09
18755;BME280;35061;47.664;9.166;2023-03-23T03:40:56;101052.23;;;9.55;75.09
18755;BME280;35061;47.664;9.166;2023-03-23T03:43:25;101039.38;;;9.51;75.49
18755;BME280;35061;47.664;9.166;2023-03-23T03:45:53;101047.16;;;9.50;75.41
18755;BME280;35061;47.664;9.166;2023-03-23T03:48:21;101044.77;;;9.48;75.57
18755;BME280;35061;47.664;9.166;2023-03-23T03:50:49;101038.76;;;9.46;75.68
18755;BME280;35061;47.664;9.166;2023-03-23T03:53:19;101038.92;;;9.43;76.10
18755;BME280;35061;47.664;9.166;2023-03-23T03:55:54;101037.02;;;9.40;76.18
18755;BME280;35061;47.664;9.166;2023-03-23T03:58:27;101023.06;;;9.32;76.83
18755;BME280;35061;47.664;9.166;2023-03-23T04:00:59;101023.23;;;9.29;77.07
18755;BME280;35061;47.664;9.166;2023-03-23T04:03:27;101019.73;;;9.25;77.49
18755;BME280;35061;47.664;9.166;2023-03-23T04:05:55;101009.43;;;9.18;77.93
18755;BME280;35061;47.664;9.166;2023-03-23T04:08:24;101022.31;;;9.13;78.69
18755;BME280;35061;47.664;9.166;2023-03-23T04:10:54;101020.41;;;9.10;79.07
18755;BME280;35061;47.664;9.166;2023-03-23T04:13:23;101016.45;;;9.07;79.66
18755;BME280;35061;47.664;9.166;2023-03-23T04:15:51;101022.15;;;9.07;79.76
18755;BME280;35061;47.664;9.166;2023-03-23T04:18:36;101012.47;;;9.05;80.16
18755;BME280;35061;47.664;9.166;2023-03-23T04:21:05;101004.39;;;9.03;80.33
18755;BME280;35061;47.664;9.166;2023-03-23T04:23:36;101001.19;;;9.01;80.96
18755;BME280;35061;47.664;9.166;2023-03-23T04:26:04;101015.18;;;8.99;81.03
18755;BME280;35061;47.664;9.166;2023-03-23T04:28:32;101017.73;;;8.97;81.23
18755;BME280;35061;47.664;9.166;2023-03-23T04:31:01;101014.56;;;8.95;81.60
18755;BME280;35061;47.664;9.166;2023-03-23T04:33:31;101017.41;;;8.95;81.37
18755;BME280;35061;47.664;9.166;2023-03-23T04:36:19;101025.97;;;8.95;81.32
18755;BME280;35061;47.664;9.166;2023-03-23T04:39:10;101015.02;;;8.93;81.38
18755;BME280;35061;47.664;9.166;2023-03-23T04:41:39;101017.86;;;8.93;81.30
18755;BME280;35061;47.664;9.166;2023-03-23T04:44:07;101026.46;;;8.93;81.40
18755;BME280;35061;47.664;9.166;2023-03-23T04:46:35;101026.92;;;8.92;82.28
18755;BME280;35061;47.664;9.166;2023-03-23T04:49:04;101026.46;;;8.93;81.45
18755;BME280;35061;47.664;9.166;2023-03-23T04:51:32;101029.60;;;8.96;81.47
18755;BME280;35061;47.664;9.166;2023-03-23T04:54:00;101019.01;;;8.96;81.26
18755;BME280;35061;47.664;9.166;2023-03-23T04:56:28;101024.24;;;8.98;81.20
18755;BME280;35061;47.664;9.166;2023-03-23T04:58:56;101016.75;;;9.00;81.10
18755;BME280;35061;47.664;9.166;2023-03-23T05:01:24;101004.39;;;9.03;80.91
18755;BME280;35061;47.664;9.166;2023-03-23T05:03:55;101008.84;;;9.04;80.97
18755;BME280;35061;47.664;9.166;2023-03-23T05:06:23;101027.41;;;9.09;80.63
18755;BME280;35061;47.664;9.166;2023-03-23T05:08:51;101035.78;;;9.13;80.35
18755;BME280;35061;47.664;9.166;2023-03-23T05:11:19;101026.59;;;9.18;80.17
18755;BME280;35061;47.664;9.166;2023-03-23T05:13:47;101034.02;;;9.25;80.01
18755;BME280;35061;47.664;9.166;2023-03-23T05:16:15;101022.90;;;9.27;80.05
18755;BME280;35061;47.664;9.166;2023-03-23T05:18:43;101026.07;;;9.29;80.05
18755;BME280;35061;47.664;9.166;2023-03-23T05:21:11;101025.61;;;9.30;80.20
18755;BME280;35061;47.664;9.166;2023-03-23T05:23:39;101027.18;;;9.31;80.28
18755;BME280;35061;47.664;9.166;2023-03-23T05:26:07;101027.84;;;9.35;80.23
18755;BME280;35061;47.664;9.166;2023-03-23T05:28:35;101025.29;;;9.38;80.25
18755;BME280;35061;47.664;9.166;2023-03-23T05:31:04;101019.27;;;9.35;80.26
18755;BME280;35061;47.664;9.166;2023-03-23T05:33:32;101024.01;;;9.39;80.22
18755;BME280;35061;47.664;9.166;2023-03-23T05:36:00;101027.97;;;9.41;80.37
18755;BME280;35061;47.664;9.166;2023-03-23T05:38:28;101036.86;;;9.43;80.32
18755;BME280;35061;47.664;9.166;2023-03-23T05:40:58;101042.06;;;9.45;80.42
18755;BME280;35061;47.664;9.166;2023-03-23T05:43:28;101037.48;;;9.47;80.30
18755;BME280;35061;47.664;9.166;2023-03-23T05:45:56;101039.05;;;9.48;80.26
18755;BME280;35061;47.664;9.166;2023-03-23T05:48:24;101049.55;;;9.52;80.54
18755;BME280;35061;47.664;9.166;2023-03-23T05:50:52;101052.39;;;9.52;80.46
18755;BME280;35061;47.664;9.166;2023-03-23T05:53:20;101042.84;;;9.55;80.17
18755;BME280;35061;47.664;9.166;2023-03-23T05:55:48;101059.85;;;9.58;80.24
18755;BME280;35061;47.664;9.166;2023-03-23T05:58:16;101056.02;;;9.61;80.24
18755;BME280;35061;47.664;9.166;2023-03-23T06:00:44;101054.75;;;9.62;80.12
18755;BME280;35061;47.664;9.166;2023-03-23T06:03:14;101060.30;;;9.66;80.04
18755;BME280;35061;47.664;9.166;2023-03-23T06:05:44;101064.59;;;9.71;79.92
18755;BME280;35061;47.664;9.166;2023-03-23T06:08:12;101062.01;;;9.73;79.92
18755;BME280;35061;47.664;9.166;2023-03-23T06:10:40;101065.02;;;9.78;79.84
18755;BME280;35061;47.664;9.166;2023-03-23T06:13:08;101071.03;;;9.81;79.90
18755;BME280;35061;47.664;9.166;2023-03-23T06:15:36;101064.40;;;9.84;79.83
18755;BME280;35061;47.664;9.166;2023-03-23T06:18:06;101061.32;;;9.87;79.81
18755;BME280;35061;47.664;9.166;2023-03-23T06:20:35;101056.71;;;9.90;79.79
18755;BME280;35061;47.664;9.166;2023-03-23T06:23:09;101065.12;;;9.94;79.75
18755;BME280;35061;47.664;9.166;2023-03-23T06:25:39;101059.72;;;9.96;79.61
18755;BME280;35061;47.664;9.166;2023-03-23T06:28:08;101057.95;;;9.98;79.50
18755;BME280;35061;47.664;9.166;2023-03-23T06:30:37;101061.13;;;10.00;79.40
18755;BME280;35061;47.664;9.166;2023-03-23T06:33:05;101047.91;;;10.03;79.32
18755;BME280;35061;47.664;9.166;2023-03-23T06:35:37;101046.64;;;10.04;79.39
18755;BME280;35061;47.664;9.166;2023-03-23T06:38:05;101048.54;;;10.07;79.35
18755;BME280;35061;47.664;9.166;2023-03-23T06:40:33;101041.87;;;10.10;79.23
18755;BME280;35061;47.664;9.166;2023-03-23T06:43:02;101043.08;;;10.18;79.15
18755;BME280;35061;47.664;9.166;2023-03-23T06:45:31;101042.71;;;10.26;79.01
18755;BME280;35061;47.664;9.166;2023-03-23T06:47:59;101052.52;;;10.34;78.83
18755;BME280;35061;47.664;9.166;2023-03-23T06:50:27;101054.23;;;10.41;78.66
18755;BME280;35061;47.664;9.166;2023-03-23T06:52:55;101045.79;;;10.46;78.49
18755;BME280;35061;47.664;9.166;2023-03-23T06:55:24;101057.66;;;10.54;78.29
18755;BME280;35061;47.664;9.166;2023-03-23T06:57:52;101053.48;;;10.65;78.20
18755;BME280;35061;47.664;9.166;2023-03-23T07:00:20;101059.13;;;10.74;77.94
18755;BME280;35061;47.664;9.166;2023-03-23T07:02:48;101054.78;;;10.79;77.76
18755;BME280;35061;47.664;9.166;2023-03-23T07:05:16;101053.44;;;10.89;77.50
18755;BME280;35061;47.664;9.166;2023-03-23T07:07:44;101058.61;;;11.00;77.25
18755;BME280;35061;47.664;9.166;2023-03-23T07:10:12;101059.33;;;11.10;76.91
18755;BME280;35061;47.664;9.166;2023-03-23T07:12:40;101057.04;;;11.14;76.49
18755;BME280;35061;47.664;9.166;2023-03-23T07:15:09;101057.27;;;11.25;76.60
18755;BME280;35061;47.664;9.166;2023-03-23T07:17:39;101028.82;;;11.37;76.51
18755;BME280;35061;47.664;9.166;2023-03-23T07:20:08;101030.78;;;11.61;76.38
18755;BME280;35061;47.664;9.166;2023-03-23T07:22:36;101039.05;;;11.73;75.61
18755;BME280;35061;47.664;9.166;2023-03-23T07:25:04;101048.63;;;11.85;75.71
18755;BME280;35061;47.664;9.166;2023-03-23T07:27:33;101060.30;;;11.97;74.36
18755;BME280;35061;47.664;9.166;2023-03-23T07:30:01;101060.02;;;12.10;73.11
18755;BME280;35061;47.664;9.166;2023-03-23T07:32:29;101059.88;;;12.19;71.50
18755;BME280;35061;47.664;9.166;2023-03-23T07:34:57;101061.84;;;12.28;71.63
18755;BME280;35061;47.664;9.166;2023-03-23T07:37:25;101071.13;;;12.38;70.63
18755;BME280;35061;47.664;9.166;2023-03-23T07:39:53;101072.34;;;12.52;70.14
18755;BME280;35061;47.664;9.166;2023-03-23T07:42:21;101080.62;;;12.65;69.30
18755;BME280;35061;47.664;9.166;2023-03-23T07:44:49;101076.88;;;12.79;68.56
18755;BME280;35061;47.664;9.166;2023-03-23T07:47:17;101070.54;;;12.96;67.55
18755;BME280;35061;47.664;9.166;2023-03-23T07:49:59;101071.03;;;13.15;64.60
18755;BME280;35061;47.664;9.166;2023-03-23T07:52:27;101077.97;;;13.29;64.80
18755;BME280;35061;47.664;9.166;2023-03-23T07:54:55;101083.36;;;13.42;64.68
18755;BME280;35061;47.664;9.166;2023-03-23T07:57:23;101071.16;;;13.53;64.61
18755;BME280;35061;47.664;9.166;2023-03-23T07:59:51;101076.52;;;13.66;64.06
18755;BME280;35061;47.664;9.166;2023-03-23T08:02:19;101086.30;;;13.74;62.71
18755;BME280;35061;47.664;9.166;2023-03-23T08:04:47;101090.55;;;13.85;62.46
18755;BME280;35061;47.664;9.166;2023-03-23T08:07:15;101090.39;;;13.94;62.11
18755;BME280;35061;47.664;9.166;2023-03-23T08:09:48;101093.59;;;14.02;62.07
18755;BME280;35061;47.664;9.166;2023-03-23T08:12:16;101097.03;;;14.12;62.27
18755;BME280;35061;47.664;9.166;2023-03-23T08:14:44;101085.88;;;14.19;62.03
18755;BME280;35061;47.664;9.166;2023-03-23T08:17:12;101088.79;;;14.25;61.09
18755;BME280;35061;47.664;9.166;2023-03-23T08:19:40;101093.53;;;14.34;61.31
18755;BME280;35061;47.664;9.166;2023-03-23T08:22:08;101086.80;;;14.43;61.28
18755;BME280;35061;47.664;9.166;2023-03-23T08:24:37;101094.71;;;14.54;60.88
18755;BME280;35061;47.664;9.166;2023-03-23T08:27:05;101094.74;;;14.59;59.66
18755;BME280;35061;47.664;9.166;2023-03-23T08:29:34;101100.27;;;14.63;56.91
18755;BME280;35061;47.664;9.166;2023-03-23T08:32:02;101100.56;;;14.71;58.29
18755;BME280;35061;47.664;9.166;2023-03-23T08:34:30;101099.32;;;14.77;56.56
18755;BME280;35061;47.664;9.166;2023-03-23T08:36:58;101095.95;;;14.85;57.01
18755;BME280;35061;47.664;9.166;2023-03-23T08:39:26;101099.38;;;14.95;56.72
18755;BME280;35061;47.664;9.166;2023-03-23T08:41:55;101104.95;;;15.04;56.12
18755;BME280;35061;47.664;9.166;2023-03-23T08:44:23;101099.19;;;15.15;55.53
18755;BME280;35061;47.664;9.166;2023-03-23T08:46:51;101109.20;;;15.26;55.60
18755;BME280;35061;47.664;9.166;2023-03-23T08:49:24;101111.05;;;15.34;54.87
18755;BME280;35061;47.664;9.166;2023-03-23T08:51:53;101106.09;;;15.46;54.68
18755;BME280;35061;47.664;9.166;2023-03-23T08:54:21;101112.14;;;15.60;51.93
18755;BME280;35061;47.664;9.166;2023-03-23T08:56:49;101116.91;;;15.69;52.53
18755;BME280;35061;47.664;9.166;2023-03-23T08:59:16;101109.03;;;15.81;51.89
18755;BME280;35061;47.664;9.166;2023-03-23T09:01:44;101110.90;;;15.89;50.91
18755;BME280;35061;47.664;9.166;2023-03-23T09:04:14;101111.19;;;15.97;51.47
18755;BME280;35061;47.664;9.166;2023-03-23T09:06:43;101112.76;;;16.04;50.45
18755;BME280;35061;47.664;9.166;2023-03-23T09:09:12;101117.20;;;16.11;50.85
18755;BME280;35061;47.664;9.166;2023-03-23T09:11:40;101120.34;;;16.18;50.63
18755;BME280;35061;47.664;9.166;2023-03-23T09:14:08;101122.47;;;16.24;49.92
18755;BME280;35061;47.664;9.166;2023-03-23T09:16:36;101132.70;;;16.25;48.51
18755;BME280;35061;47.664;9.166;2023-03-23T09:19:04;101127.96;;;16.33;50.25
18755;BME280;35061;47.664;9.166;2023-03-23T09:21:32;101129.01;;;16.41;50.36
18755;BME280;35061;47.664;9.166;2023-03-23T09:24:00;101129.01;;;16.47;49.80
18755;BME280;35061;47.664;9.166;2023-03-23T09:26:30;101132.12;;;16.55;50.06
18755;BME280;35061;47.664;9.166;2023-03-23T09:28:59;101132.87;;;16.67;50.10
18755;BME280;35061;47.664;9.166;2023-03-23T09:31:26;101139.18;;;16.77;48.46
18755;BME280;35061;47.664;9.166;2023-03-23T09:33:55;101141.24;;;16.82;49.47
18755;BME280;35061;47.664;9.166;2023-03-23T09:36:26;101131.79;;;16.87;50.20
18755;BME280;35061;47.664;9.166;2023-03-23T09:38:57;101134.11;;;16.88;50.92
18755;BME280;35061;47.664;9.166;2023-03-23T09:44:46;101133.33;;;16.94;51.40
18755;BME280;35061;47.664;9.166;2023-03-23T09:47:29;101131.53;;;16.91;51.45
18755;BME280;35061;47.664;9.166;2023-03-23T09:50:04;101126.03;;;16.81;51.20
18755;BME280;35061;47.664;9.166;2023-03-23T09:52:43;101127.64;;;16.71;51.63
18755;BME280;35061;47.664;9.166;2023-03-23T09:55:15;101122.38;;;16.64;51.53
18755;BME280;35061;47.664;9.166;2023-03-23T09:57:58;101136.34;;;16.59;51.70
18755;BME280;35061;47.664;9.166;2023-03-23T10:00:34;101137.91;;;16.55;51.63
18755;BME280;35061;47.664;9.166;2023-03-23T10:03:17;101134.24;;;16.49;51.94
18755;BME280;35061;47.664;9.166;2023-03-23T10:08:22;101146.60;;;16.49;51.75
18755;BME280;35061;47.664;9.166;2023-03-23T10:14:07;101150.27;;;16.44;51.53
18755;BME280;35061;47.664;9.166;2023-03-23T10:16:42;101144.48;;;16.44;51.85
18755;BME280;35061;47.664;9.166;2023-03-23T10:19:12;101158.15;;;16.49;51.89
18755;BME280;35061;47.664;9.166;2023-03-23T10:21:56;101150.23;;;16.55;51.74
18755;BME280;35061;47.664;9.166;2023-03-23T10:24:34;101157.88;;;16.64;51.17
18755;BME280;35061;47.664;9.166;2023-03-23T10:27:20;101165.47;;;16.73;51.36
18755;BME280;35061;47.664;9.166;2023-03-23T10:32:54;101169.13;;;16.79;50.73
18755;BME280;35061;47.664;9.166;2023-03-23T10:35:28;101165.93;;;16.88;50.96
18755;BME280;35061;47.664;9.166;2023-03-23T10:38:08;101155.14;;;16.95;49.35
18755;BME280;35061;47.664;9.166;2023-03-23T10:40:50;101155.66;;;17.05;47.41
18755;BME280;35061;47.664;9.166;2023-03-23T10:43:21;101161.97;;;17.09;47.32
18755;BME280;35061;47.664;9.166;2023-03-23T10:45:56;101156.41;;;17.16;46.76
18755;BME280;35061;47.664;9.166;2023-03-23T10:48:31;101157.72;;;17.21;45.88
18755;BME280;35061;47.664;9.166;2023-03-23T10:51:04;101156.64;;;17.24;45.80
18755;BME280;35061;47.664;9.166;2023-03-23T10:53:37;101163.25;;;17.19;44.40
18755;BME280;35061;47.664;9.166;2023-03-23T10:58:51;101169.30;;;17.21;45.06
18755;BME280;35061;47.664;9.166;2023-03-23T11:01:31;101161.41;;;17.22;45.28
18755;BME280;35061;47.664;9.166;2023-03-23T11:04:00;101161.65;;;17.24;45.19
18755;BME280;35061;47.664;9.166;2023-03-23T11:06:30;101164.55;;;17.24;45.17
18755;BME280;35061;47.664;9.166;2023-03-23T11:09:18;101167.70;;;17.26;45.14
18755;BME280;35061;47.664;9.166;2023-03-23T11:11:52;101162.43;;;17.24;44.69
18755;BME280;35061;47.664;9.166;2023-03-23T11:14:34;101155.10;;;17.18;44.45
18755;BME280;35061;47.664;9.166;2023-03-23T11:17:24;101152.78;;;17.10;43.82
18755;BME280;35061;47.664;9.166;2023-03-23T11:19:53;101147.75;;;17.11;44.76
18755;BME280;35061;47.664;9.166;2023-03-23T11:22:32;101147.23;;;17.18;45.43
18755;BME280;35061;47.664;9.166;2023-03-23T11:25:03;101137.71;;;17.23;45.46
18755;BME280;35061;47.664;9.166;2023-03-23T11:27:32;101143.76;;;17.20;44.98
18755;BME280;35061;47.664;9.166;2023-03-23T11:30:09;101149.02;;;17.21;45.06
18755;BME280;35061;47.664;9.166;2023-03-23T11:32:43;101139.28;;;17.24;45.44
18755;BME280;35061;47.664;9.166;2023-03-23T11:35:18;101139.80;;;17.28;45.51
18755;BME280;35061;47.664;9.166;2023-03-23T11:37:52;101140.00;;;17.36;46.16
18755;BME280;35061;47.664;9.166;2023-03-23T11:40:26;101136.04;;;17.39;46.60
18755;BME280;35061;47.664;9.166;2023-03-23T11:42:58;101134.14;;;17.48;46.87
18755;BME280;35061;47.664;9.166;2023-03-23T11:45:38;101144.15;;;17.52;46.37
18755;BME280;35061;47.664;9.166;2023-03-23T11:48:35;101145.95;;;17.55;47.17
18755;BME280;35061;47.664;9.166;2023-03-23T11:51:08;101144.34;;;17.60;47.19
18755;BME280;35061;47.664;9.166;2023-03-23T11:54:04;101138.20;;;17.75;46.93
18755;BME280;35061;47.664;9.166;2023-03-23T11:56:41;101147.59;;;17.87;46.23
18755;BME280;35061;47.664;9.166;2023-03-23T11:59:27;101138.85;;;17.93;46.06
18755;BME280;35061;47.664;9.166;2023-03-23T12:02:01;101130.91;;;17.99;45.53
18755;BME280;35061;47.664;9.166;2023-03-23T12:07:50;101135.23;;;18.23;45.01
18755;BME280;35061;47.664;9.166;2023-03-23T12:10:24;101142.48;;;18.35;45.27
18755;BME280;35061;47.664;9.166;2023-03-23T12:21:45;101126.20;;;18.57;44.80
18755;BME280;35061;47.664;9.166;2023-03-23T12:27:15;101131.46;;;18.59;43.07
18755;BME280;35061;47.664;9.166;2023-03-23T12:30:20;101139.60;;;18.60;43.57
18755;BME280;35061;47.664;9.166;2023-03-23T12:33:12;101141.73;;;18.60;42.88
18755;BME280;35061;47.664;9.166;2023-03-23T12:36:03;101129.34;;;18.59;43.51
18755;BME280;35061;47.664;9.166;2023-03-23T12:38:56;101122.44;;;18.62;43.85
18755;BME280;35061;47.664;9.166;2023-03-23T12:44:22;101105.11;;;18.57;43.50
18755;BME280;35061;47.664;9.166;2023-03-23T12:47:03;101111.52;;;18.49;42.91
18755;BME280;35061;47.664;9.166;2023-03-23T12:49:38;101107.52;;;18.52;43.42
18755;BME280;35061;47.664;9.166;2023-03-23T12:52:19;101109.55;;;18.58;43.37
18755;BME280;35061;47.664;9.166;2023-03-23T12:55:04;101106.71;;;18.52;42.89
18755;BME280;35061;47.664;9.166;2023-03-23T12:57:58;101091.77;;;18.48;42.67
18755;BME280;35061;47.664;9.166;2023-03-23T13:03:33;101099.98;;;18.44;42.93
18755;BME280;35061;47.664;9.166;2023-03-23T13:06:18;101090.66;;;18.26;42.50
18755;BME280;35061;47.664;9.166;2023-03-23T13:09:11;101079.11;;;18.20;43.20
18755;BME280;35061;47.664;9.166;2023-03-23T13:11:41;101076.46;;;18.22;43.79
18755;BME280;35061;47.664;9.166;2023-03-23T13:14:29;101075.12;;;18.23;44.10
18755;BME280;35061;47.664;9.166;2023-03-23T13:28:45;101062.95;;;18.31;43.90
18755;BME280;35061;47.664;9.166;2023-03-23T13:31:17;101066.12;;;18.27;44.22
18755;BME280;35061;47.664;9.166;2023-03-23T13:33:57;101068.81;;;18.25;44.48
18755;BME280;35061;47.664;9.166;2023-03-23T13:37:29;101075.94;;;18.24;44.73
18755;BME280;35061;47.664;9.166;2023-03-23T13:39:48;101075.19;;;18.18;44.79
18755;BME280;35061;47.664;9.166;2023-03-23T13:42:23;101069.30;;;17.98;45.57
18755;BME280;35061;47.664;9.166;2023-03-23T14:08:21;101062.73;;;16.60;50.84
18755;BME280;35061;47.664;9.166;2023-03-23T14:16:02;101065.44;;;16.30;52.08
18755;BME280;35061;47.664;9.166;2023-03-23T14:18:39;101064.13;;;16.19;52.29
18755;BME280;35061;47.664;9.166;2023-03-23T14:21:31;101063.38;;;16.13;52.30
18755;BME280;35061;47.664;9.166;2023-03-23T14:24:44;101047.09;;;16.10;52.63
18755;BME280;35061;47.664;9.166;2023-03-23T14:27:01;101057.37;;;16.06;52.46
18755;BME280;35061;47.664;9.166;2023-03-23T14:29:29;101037.91;;;16.00;52.21
18755;BME280;35061;47.664;9.166;2023-03-23T14:31:58;101036.86;;;16.03;52.25
18755;BME280;35061;47.664;9.166;2023-03-23T14:34:30;101037.65;;;16.04;51.70
18755;BME280;35061;47.664;9.166;2023-03-23T14:36:59;101038.70;;;16.07;51.44
18755;BME280;35061;47.664;9.166;2023-03-23T14:39:32;101048.93;;;16.08;51.20
18755;BME280;35061;47.664;9.166;2023-03-23T14:42:04;101050.50;;;16.09;51.15
18755;BME280;35061;47.664;9.166;2023-03-23T14:44:34;101052.07;;;16.10;51.19
18755;BME280;35061;47.664;9.166;2023-03-23T14:47:09;101048.44;;;16.09;51.15
18755;BME280;35061;47.664;9.166;2023-03-23T14:49:41;101045.79;;;16.11;50.96